sensor_id;sensor_type;location;lat;lon;timestamp;pressure;altitude;pressure_sealevel;temperature;humidity
77023;BME280;65952;51.440;-2.054;2024-01-11T00:01:16;101875.09;;;3.10;68.01
77023;BME280;65952;51.440;-2.054;2024-01-11T00:03:42;101885.91;;;3.23;68.70
77023;BME280;65952;51.440;-2.054;2024-01-11T00:06:07;101892.03;;;3.41;68.15
77023;BME280;65952;51.440;-2.054;2024-01-11T00:08:33;101889.72;;;3.51;67.19
77023;BME280;65952;51.440;-2.054;2024-01-11T00:10:58;101894.13;;;3.68;66.46
77023;BME280;65952;51.440;-2.054;2024-01-11T00:13:24;101893.56;;;3.79;66.06
77023;BME280;65952;51.440;-2.054;2024-01-11T00:15:49;101889.34;;;3.90;65.46
77023;BME280;65952;51.440;-2.054;2024-01-11T00:18:15;101889.16;;;3.62;66.29
77023;BME280;65952;51.440;-2.054;2024-01-11T00:20:42;101892.09;;;3.39;66.96
77023;BME280;65952;51.440;-2.054;2024-01-11T00:23:08;101898.69;;;3.32;67.86
77023;BME280;65952;51.440;-2.054;2024-01-11T00:25:34;101891.19;;;3.56;67.39
77023;BME280;65952;51.440;-2.054;2024-01-11T00:28:00;101894.41;;;3.79;66.26
77023;BME280;65952;51.440;-2.054;2024-01-11T00:30:27;101904.50;;;3.88;65.92
77023;BME280;65952;51.440;-2.054;2024-01-11T00:32:53;101906.19;;;3.57;66.87
77023;BME280;65952;51.440;-2.054;2024-01-11T00:35:19;101904.56;;;3.55;67.50
77023;BME280;65952;51.440;-2.054;2024-01-11T00:37:44;101905.50;;;3.54;67.48
77023;BME280;65952;51.440;-2.054;2024-01-11T00:40:10;101910.03;;;3.36;67.46
77023;BME280;65952;51.440;-2.054;2024-01-11T00:42:36;101920.22;;;3.60;66.78
77023;BME280;65952;51.440;-2.054;2024-01-11T00:45:01;101909.13;;;3.85;66.31
77023;BME280;65952;51.440;-2.054;2024-01-11T00:47:27;101920.72;;;3.84;66.00
77023;BME280;65952;51.440;-2.054;2024-01-11T00:49:52;101915.94;;;3.57;66.69
77023;BME280;65952;51.440;-2.054;2024-01-11T00:52:19;101921.75;;;3.48;67.25
77023;BME280;65952;51.440;-2.054;2024-01-11T00:54:44;101924.13;;;3.36;67.74
77023;BME280;65952;51.440;-2.054;2024-01-11T00:57:09;101919.53;;;3.40;67.53
77023;BME280;65952;51.440;-2.054;2024-01-11T00:59:40;101928.09;;;3.45;67.36
77023;BME280;65952;51.440;-2.054;2024-01-11T01:02:09;101933.97;;;3.68;66.48
77023;BME280;65952;51.440;-2.054;2024-01-11T01:04:38;101932.09;;;3.70;66.73
77023;BME280;65952;51.440;-2.054;2024-01-11T01:07:04;101929.59;;;3.67;66.93
77023;BME280;65952;51.440;-2.054;2024-01-11T01:09:31;101930.75;;;3.79;66.45
77023;BME280;65952;51.440;-2.054;2024-01-11T01:11:56;101936.22;;;3.42;67.13
77023;BME280;65952;51.440;-2.054;2024-01-11T01:14:22;101934.81;;;3.52;67.45
77023;BME280;65952;51.440;-2.054;2024-01-11T01:16:47;101943.75;;;3.67;66.80
77023;BME280;65952;51.440;-2.054;2024-01-11T01:19:13;101941.59;;;3.40;67.58
77023;BME280;65952;51.440;-2.054;2024-01-11T01:21:38;101942.72;;;3.70;66.54
77023;BME280;65952;51.440;-2.054;2024-01-11T01:24:04;101947.75;;;3.58;66.44
77023;BME280;65952;51.440;-2.054;2024-01-11T01:26:30;101948.72;;;3.40;67.47
77023;BME280;65952;51.440;-2.054;2024-01-11T01:28:55;101948.94;;;3.53;67.15
77023;BME280;65952;51.440;-2.054;2024-01-11T01:31:21;101955.47;;;2.95;69.70
77023;BME280;65952;51.440;-2.054;2024-01-11T01:33:47;101957.97;;;3.15;69.09
77023;BME280;65952;51.440;-2.054;2024-01-11T01:36:12;101947.41;;;3.31;68.13
77023;BME280;65952;51.440;-2.054;2024-01-11T01:38:38;101954.69;;;3.10;68.68
77023;BME280;65952;51.440;-2.054;2024-01-11T01:41:04;101954.53;;;3.13;68.66
77023;BME280;65952;51.440;-2.054;2024-01-11T01:43:30;101953.75;;;2.93;69.38
77023;BME280;65952;51.440;-2.054;2024-01-11T01:45:58;101953.69;;;2.95;69.39
77023;BME280;65952;51.440;-2.054;2024-01-11T01:48:24;101959.16;;;2.92;69.67
77023;BME280;65952;51.440;-2.054;2024-01-11T01:50:50;101953.84;;;3.09;68.64
77023;BME280;65952;51.440;-2.054;2024-01-11T01:53:22;101952.13;;;2.73;70.23
77023;BME280;65952;51.440;-2.054;2024-01-11T01:55:50;101958.50;;;3.22;68.94
77023;BME280;65952;51.440;-2.054;2024-01-11T01:58:17;101959.50;;;3.02;69.19
77023;BME280;65952;51.440;-2.054;2024-01-11T02:00:45;101969.69;;;2.93;69.43
77023;BME280;65952;51.440;-2.054;2024-01-11T02:03:12;101967.34;;;2.87;69.37
77023;BME280;65952;51.440;-2.054;2024-01-11T02:05:40;101967.25;;;2.89;69.92
77023;BME280;65952;51.440;-2.054;2024-01-11T02:08:06;101982.63;;;3.00;69.35
77023;BME280;65952;51.440;-2.054;2024-01-11T02:10:34;101985.91;;;2.87;69.83
77023;BME280;65952;51.440;-2.054;2024-01-11T02:13:00;101991.41;;;2.65;70.48
77023;BME280;65952;51.440;-2.054;2024-01-11T02:15:26;101986.84;;;2.86;70.45
77023;BME280;65952;51.440;-2.054;2024-01-11T02:17:51;101999.66;;;2.96;69.75
77023;BME280;65952;51.440;-2.054;2024-01-11T02:20:17;101994.72;;;3.23;69.38
77023;BME280;65952;51.440;-2.054;2024-01-11T02:22:47;101998.56;;;3.35;68.53
77023;BME280;65952;51.440;-2.054;2024-01-11T02:25:13;102005.25;;;3.24;69.34
77023;BME280;65952;51.440;-2.054;2024-01-11T02:27:49;102004.75;;;3.69;67.28
77023;BME280;65952;51.440;-2.054;2024-01-11T02:30:15;102003.66;;;3.55;67.86
77023;BME280;65952;51.440;-2.054;2024-01-11T02:32:43;102011.22;;;3.12;69.47
77023;BME280;65952;51.440;-2.054;2024-01-11T02:35:08;102020.94;;;3.29;68.99
77023;BME280;65952;51.440;-2.054;2024-01-11T02:37:36;102015.03;;;3.06;69.60
77023;BME280;65952;51.440;-2.054;2024-01-11T02:40:02;102018.19;;;3.48;68.17
77023;BME280;65952;51.440;-2.054;2024-01-11T02:42:28;102011.81;;;3.35;68.84
77023;BME280;65952;51.440;-2.054;2024-01-11T02:44:54;102015.03;;;3.24;68.72
77023;BME280;65952;51.440;-2.054;2024-01-11T02:47:19;102018.72;;;2.67;70.65
77023;BME280;65952;51.440;-2.054;2024-01-11T02:49:45;102025.09;;;3.17;69.25
77023;BME280;65952;51.440;-2.054;2024-01-11T02:52:10;102021.66;;;3.15;69.09
77023;BME280;65952;51.440;-2.054;2024-01-11T02:54:36;102017.75;;;3.57;68.08
77023;BME280;65952;51.440;-2.054;2024-01-11T02:57:01;102020.38;;;3.75;66.85
77023;BME280;65952;51.440;-2.054;2024-01-11T02:59:27;102017.06;;;3.19;68.78
77023;BME280;65952;51.440;-2.054;2024-01-11T03:01:52;102022.75;;;3.29;68.11
77023;BME280;65952;51.440;-2.054;2024-01-11T03:04:18;102020.56;;;3.37;68.17
77023;BME280;65952;51.440;-2.054;2024-01-11T03:06:43;102031.03;;;3.22;69.10
77023;BME280;65952;51.440;-2.054;2024-01-11T03:09:09;102042.72;;;3.53;67.49
77023;BME280;65952;51.440;-2.054;2024-01-11T03:11:34;102044.53;;;3.18;68.82
77023;BME280;65952;51.440;-2.054;2024-01-11T03:14:00;102041.25;;;3.13;69.04
77023;BME280;65952;51.440;-2.054;2024-01-11T03:16:25;102041.63;;;3.57;67.54
77023;BME280;65952;51.440;-2.054;2024-01-11T03:18:51;102043.28;;;3.60;66.90
77023;BME280;65952;51.440;-2.054;2024-01-11T03:21:16;102044.75;;;3.48;67.13
77023;BME280;65952;51.440;-2.054;2024-01-11T03:23:41;102050.16;;;3.29;68.39
77023;BME280;65952;51.440;-2.054;2024-01-11T03:26:17;102055.47;;;3.29;68.53
77023;BME280;65952;51.440;-2.054;2024-01-11T03:28:42;102062.41;;;3.49;67.39
77023;BME280;65952;51.440;-2.054;2024-01-11T03:31:09;102066.16;;;3.63;67.21
77023;BME280;65952;51.440;-2.054;2024-01-11T03:33:35;102076.56;;;3.67;66.29
77023;BME280;65952;51.440;-2.054;2024-01-11T03:36:07;102066.16;;;3.45;67.30
77023;BME280;65952;51.440;-2.054;2024-01-11T03:38:33;102076.63;;;3.48;67.20
77023;BME280;65952;51.440;-2.054;2024-01-11T03:40:58;102074.97;;;3.63;66.10
77023;BME280;65952;51.440;-2.054;2024-01-11T03:43:24;102080.16;;;3.49;67.30
77023;BME280;65952;51.440;-2.054;2024-01-11T03:45:50;102087.00;;;3.35;67.62
77023;BME280;65952;51.440;-2.054;2024-01-11T03:48:15;102090.84;;;3.30;67.68
77023;BME280;65952;51.440;-2.054;2024-01-11T03:50:41;102097.63;;;3.35;67.49
77023;BME280;65952;51.440;-2.054;2024-01-11T03:53:06;102098.25;;;3.40;67.54
77023;BME280;65952;51.440;-2.054;2024-01-11T03:55:33;102097.00;;;3.48;66.84
77023;BME280;65952;51.440;-2.054;2024-01-11T03:57:58;102093.75;;;3.60;66.46
77023;BME280;65952;51.440;-2.054;2024-01-11T04:00:24;102100.50;;;3.31;67.79
77023;BME280;65952;51.440;-2.054;2024-01-11T04:02:49;102094.91;;;3.54;66.73
77023;BME280;65952;51.440;-2.054;2024-01-11T04:05:15;102099.44;;;3.52;66.98
77023;BME280;65952;51.440;-2.054;2024-01-11T04:07:41;102104.34;;;3.42;67.31
77023;BME280;65952;51.440;-2.054;2024-01-11T04:10:07;102102.09;;;3.52;67.30
77023;BME280;65952;51.440;-2.054;2024-01-11T04:12:35;102109.28;;;3.68;66.40
77023;BME280;65952;51.440;-2.054;2024-01-11T04:15:01;102115.81;;;3.43;67.46
77023;BME280;65952;51.440;-2.054;2024-01-11T04:17:27;102113.47;;;3.37;67.96
77023;BME280;65952;51.440;-2.054;2024-01-11T04:19:52;102101.63;;;3.62;67.31
77023;BME280;65952;51.440;-2.054;2024-01-11T04:22:18;102107.56;;;3.67;66.63
77023;BME280;65952;51.440;-2.054;2024-01-11T04:24:43;102107.25;;;3.73;66.63
77023;BME280;65952;51.440;-2.054;2024-01-11T04:27:09;102110.50;;;3.78;65.84
77023;BME280;65952;51.440;-2.054;2024-01-11T04:29:34;102107.16;;;3.74;65.92
77023;BME280;65952;51.440;-2.054;2024-01-11T04:32:00;102109.28;;;3.68;66.40
77023;BME280;65952;51.440;-2.054;2024-01-11T04:34:26;102113.34;;;3.75;66.10
77023;BME280;65952;51.440;-2.054;2024-01-11T04:36:52;102110.75;;;3.73;66.15
77023;BME280;65952;51.440;-2.054;2024-01-11T04:39:17;102118.88;;;3.70;66.09
77023;BME280;65952;51.440;-2.054;2024-01-11T04:41:43;102124.66;;;3.26;68.03
77023;BME280;65952;51.440;-2.054;2024-01-11T04:44:08;102133.88;;;3.54;67.43
77023;BME280;65952;51.440;-2.054;2024-01-11T04:46:35;102119.59;;;3.74;66.62
77023;BME280;65952;51.440;-2.054;2024-01-11T04:49:00;102132.66;;;3.79;66.36
77023;BME280;65952;51.440;-2.054;2024-01-11T04:51:26;102126.00;;;3.52;67.32
77023;BME280;65952;51.440;-2.054;2024-01-11T04:53:51;102134.19;;;3.83;66.33
77023;BME280;65952;51.440;-2.054;2024-01-11T04:56:17;102131.63;;;3.81;66.02
77023;BME280;65952;51.440;-2.054;2024-01-11T04:58:44;102126.00;;;3.87;66.18
77023;BME280;65952;51.440;-2.054;2024-01-11T05:01:17;102132.06;;;3.89;65.89
77023;BME280;65952;51.440;-2.054;2024-01-11T05:03:43;102130.44;;;3.87;66.09
77023;BME280;65952;51.440;-2.054;2024-01-11T05:06:15;102129.72;;;3.83;65.91
77023;BME280;65952;51.440;-2.054;2024-01-11T05:08:42;102133.72;;;3.92;65.73
77023;BME280;65952;51.440;-2.054;2024-01-11T05:11:07;102135.66;;;3.88;65.69
77023;BME280;65952;51.440;-2.054;2024-01-11T05:13:33;102135.13;;;3.82;65.66
77023;BME280;65952;51.440;-2.054;2024-01-11T05:15:58;102139.66;;;3.80;65.89
77023;BME280;65952;51.440;-2.054;2024-01-11T05:18:24;102139.13;;;3.73;66.03
77023;BME280;65952;51.440;-2.054;2024-01-11T05:20:49;102148.94;;;3.88;66.06
77023;BME280;65952;51.440;-2.054;2024-01-11T05:23:15;102146.69;;;3.81;65.76
77023;BME280;65952;51.440;-2.054;2024-01-11T05:25:40;102153.03;;;3.78;66.28
77023;BME280;65952;51.440;-2.054;2024-01-11T05:28:06;102149.50;;;3.95;65.49
77023;BME280;65952;51.440;-2.054;2024-01-11T05:30:31;102155.91;;;3.91;65.19
77023;BME280;65952;51.440;-2.054;2024-01-11T05:32:57;102156.16;;;3.86;65.56
77023;BME280;65952;51.440;-2.054;2024-01-11T05:35:23;102164.13;;;3.86;65.41
77023;BME280;65952;51.440;-2.054;2024-01-11T05:37:50;102155.28;;;3.86;65.19
77023;BME280;65952;51.440;-2.054;2024-01-11T05:40:15;102159.66;;;3.87;65.50
77023;BME280;65952;51.440;-2.054;2024-01-11T05:42:41;102165.75;;;3.89;65.43
77023;BME280;65952;51.440;-2.054;2024-01-11T05:45:07;102172.84;;;3.88;65.42
77023;BME280;65952;51.440;-2.054;2024-01-11T05:47:32;102177.56;;;3.83;65.49
77023;BME280;65952;51.440;-2.054;2024-01-11T05:49:58;102177.56;;;3.83;65.40
77023;BME280;65952;51.440;-2.054;2024-01-11T05:52:23;102174.81;;;3.85;65.54
77023;BME280;65952;51.440;-2.054;2024-01-11T05:54:49;102169.28;;;3.89;65.43
77023;BME280;65952;51.440;-2.054;2024-01-11T05:57:14;102173.66;;;3.90;65.03
77023;BME280;65952;51.440;-2.054;2024-01-11T05:59:44;102180.91;;;3.69;65.40
77023;BME280;65952;51.440;-2.054;2024-01-11T06:02:12;102178.03;;;3.74;65.53
77023;BME280;65952;51.440;-2.054;2024-01-11T06:04:39;102185.53;;;3.83;65.19
77023;BME280;65952;51.440;-2.054;2024-01-11T06:07:05;102182.41;;;3.75;65.46
77023;BME280;65952;51.440;-2.054;2024-01-11T06:09:30;102187.88;;;3.72;65.47
77023;BME280;65952;51.440;-2.054;2024-01-11T06:11:55;102194.97;;;3.54;65.39
77023;BME280;65952;51.440;-2.054;2024-01-11T06:14:21;102193.84;;;3.40;65.63
77023;BME280;65952;51.440;-2.054;2024-01-11T06:16:46;102201.34;;;3.32;65.38
77023;BME280;65952;51.440;-2.054;2024-01-11T06:19:12;102199.91;;;3.25;65.31
77023;BME280;65952;51.440;-2.054;2024-01-11T06:21:37;102204.94;;;3.12;65.29
77023;BME280;65952;51.440;-2.054;2024-01-11T06:24:03;102202.56;;;3.06;66.20
77023;BME280;65952;51.440;-2.054;2024-01-11T06:26:29;102199.41;;;2.98;66.07
77023;BME280;65952;51.440;-2.054;2024-01-11T06:28:55;102195.25;;;2.92;66.20
77023;BME280;65952;51.440;-2.054;2024-01-11T06:31:21;102206.06;;;3.06;66.51
77023;BME280;65952;51.440;-2.054;2024-01-11T06:33:46;102210.22;;;2.93;66.72
77023;BME280;65952;51.440;-2.054;2024-01-11T06:36:12;102217.91;;;2.80;66.37
77023;BME280;65952;51.440;-2.054;2024-01-11T06:38:37;102231.16;;;2.80;66.38
77023;BME280;65952;51.440;-2.054;2024-01-11T06:41:03;102232.94;;;2.60;66.56
77023;BME280;65952;51.440;-2.054;2024-01-11T06:43:28;102238.34;;;2.78;66.41
77023;BME280;65952;51.440;-2.054;2024-01-11T06:45:54;102233.38;;;2.70;66.75
77023;BME280;65952;51.440;-2.054;2024-01-11T06:48:19;102239.34;;;2.75;66.90
77023;BME280;65952;51.440;-2.054;2024-01-11T06:50:45;102236.06;;;2.89;66.76
77023;BME280;65952;51.440;-2.054;2024-01-11T06:53:11;102234.41;;;3.06;66.94
77023;BME280;65952;51.440;-2.054;2024-01-11T06:55:36;102240.38;;;3.11;67.06
77023;BME280;65952;51.440;-2.054;2024-01-11T06:58:02;102236.56;;;2.98;67.60
77023;BME280;65952;51.440;-2.054;2024-01-11T07:00:27;102243.31;;;3.05;66.90
77023;BME280;65952;51.440;-2.054;2024-01-11T07:02:53;102243.50;;;3.00;66.59
77023;BME280;65952;51.440;-2.054;2024-01-11T07:05:19;102242.38;;;2.87;66.94
77023;BME280;65952;51.440;-2.054;2024-01-11T07:07:46;102246.53;;;3.12;66.37
77023;BME280;65952;51.440;-2.054;2024-01-11T07:10:11;102244.38;;;3.20;65.99
77023;BME280;65952;51.440;-2.054;2024-01-11T07:12:38;102244.03;;;3.08;66.27
77023;BME280;65952;51.440;-2.054;2024-01-11T07:15:04;102257.28;;;2.89;66.30
77023;BME280;65952;51.440;-2.054;2024-01-11T07:17:30;102252.03;;;2.88;66.78
77023;BME280;65952;51.440;-2.054;2024-01-11T07:19:56;102252.31;;;2.82;66.77
77023;BME280;65952;51.440;-2.054;2024-01-11T07:22:21;102263.00;;;2.80;67.03
77023;BME280;65952;51.440;-2.054;2024-01-11T07:24:47;102270.22;;;2.76;66.86
77023;BME280;65952;51.440;-2.054;2024-01-11T07:27:12;102275.69;;;2.73;66.83
77023;BME280;65952;51.440;-2.054;2024-01-11T07:29:38;102271.75;;;2.62;67.02
77023;BME280;65952;51.440;-2.054;2024-01-11T07:32:04;102281.41;;;2.43;67.13
77023;BME280;65952;51.440;-2.054;2024-01-11T07:34:29;102292.25;;;2.37;67.28
77023;BME280;65952;51.440;-2.054;2024-01-11T07:36:55;102297.75;;;2.33;67.22
77023;BME280;65952;51.440;-2.054;2024-01-11T07:39:24;102295.50;;;2.23;67.23
77023;BME280;65952;51.440;-2.054;2024-01-11T07:41:50;102296.56;;;2.19;67.37
77023;BME280;65952;51.440;-2.054;2024-01-11T07:44:16;102301.13;;;2.16;67.48
77023;BME280;65952;51.440;-2.054;2024-01-11T07:46:42;102302.38;;;2.27;67.62
77023;BME280;65952;51.440;-2.054;2024-01-11T07:49:08;102309.63;;;2.24;67.53
77023;BME280;65952;51.440;-2.054;2024-01-11T07:51:33;102316.88;;;2.19;67.34
77023;BME280;65952;51.440;-2.054;2024-01-11T07:54:02;102312.53;;;2.18;67.51
77023;BME280;65952;51.440;-2.054;2024-01-11T07:56:29;102318.50;;;2.23;67.78
77023;BME280;65952;51.440;-2.054;2024-01-11T07:58:55;102322.75;;;2.27;67.64
77023;BME280;65952;51.440;-2.054;2024-01-11T08:01:20;102320.84;;;2.51;67.94
77023;BME280;65952;51.440;-2.054;2024-01-11T08:03:46;102334.97;;;2.72;67.91
77023;BME280;65952;51.440;-2.054;2024-01-11T08:06:12;102332.84;;;2.81;67.88
77023;BME280;65952;51.440;-2.054;2024-01-11T08:08:38;102332.22;;;2.95;68.44
77023;BME280;65952;51.440;-2.054;2024-01-11T08:11:10;102325.47;;;2.87;67.76
77023;BME280;65952;51.440;-2.054;2024-01-11T08:13:38;102326.66;;;2.80;67.91
77023;BME280;65952;51.440;-2.054;2024-01-11T08:16:04;102327.16;;;2.69;67.95
77023;BME280;65952;51.440;-2.054;2024-01-11T08:18:32;102333.38;;;2.68;67.87
77023;BME280;65952;51.440;-2.054;2024-01-11T08:20:57;102335.38;;;2.63;67.93
77023;BME280;65952;51.440;-2.054;2024-01-11T08:23:23;102333.38;;;2.68;67.97
77023;BME280;65952;51.440;-2.054;2024-01-11T08:25:49;102343.66;;;2.76;67.96
77023;BME280;65952;51.440;-2.054;2024-01-11T08:28:14;102330.03;;;2.84;67.87
77023;BME280;65952;51.440;-2.054;2024-01-11T08:30:39;102342.03;;;2.92;68.14
77023;BME280;65952;51.440;-2.054;2024-01-11T08:33:05;102341.84;;;2.76;69.50
77023;BME280;65952;51.440;-2.054;2024-01-11T08:35:31;102340.72;;;3.22;68.45
77023;BME280;65952;51.440;-2.054;2024-01-11T08:37:57;102333.91;;;3.35;68.12
77023;BME280;65952;51.440;-2.054;2024-01-11T08:40:23;102346.06;;;3.41;67.80
77023;BME280;65952;51.440;-2.054;2024-01-11T08:42:48;102346.53;;;3.49;67.82
77023;BME280;65952;51.440;-2.054;2024-01-11T08:45:14;102347.47;;;3.48;67.83
77023;BME280;65952;51.440;-2.054;2024-01-11T08:47:46;102340.50;;;3.65;67.84
77023;BME280;65952;51.440;-2.054;2024-01-11T08:50:13;102348.13;;;3.72;66.88
77023;BME280;65952;51.440;-2.054;2024-01-11T08:52:38;102355.16;;;3.54;67.80
77023;BME280;65952;51.440;-2.054;2024-01-11T08:55:05;102355.81;;;3.79;66.70
77023;BME280;65952;51.440;-2.054;2024-01-11T08:57:30;102357.16;;;3.87;66.22
77023;BME280;65952;51.440;-2.054;2024-01-11T08:59:56;102358.22;;;3.83;66.54
77023;BME280;65952;51.440;-2.054;2024-01-11T09:02:21;102371.03;;;3.75;66.76
77023;BME280;65952;51.440;-2.054;2024-01-11T09:04:48;102373.91;;;3.51;67.65
77023;BME280;65952;51.440;-2.054;2024-01-11T09:07:14;102377.63;;;3.47;67.69
77023;BME280;65952;51.440;-2.054;2024-01-11T09:09:40;102378.72;;;3.81;66.63
77023;BME280;65952;51.440;-2.054;2024-01-11T09:12:06;102380.22;;;4.41;65.85
77023;BME280;65952;51.440;-2.054;2024-01-11T09:14:32;102389.59;;;5.18;63.04
77023;BME280;65952;51.440;-2.054;2024-01-11T09:16:57;102382.00;;;6.71;58.97
77023;BME280;65952;51.440;-2.054;2024-01-11T09:19:25;102389.13;;;8.00;54.21
77023;BME280;65952;51.440;-2.054;2024-01-11T09:21:51;102387.34;;;8.68;51.93
77023;BME280;65952;51.440;-2.054;2024-01-11T09:24:16;102384.44;;;8.71;50.74
77023;BME280;65952;51.440;-2.054;2024-01-11T09:26:42;102395.84;;;7.78;52.78
77023;BME280;65952;51.440;-2.054;2024-01-11T09:29:07;102408.63;;;6.56;55.99
77023;BME280;65952;51.440;-2.054;2024-01-11T09:31:33;102410.78;;;6.19;57.85
77023;BME280;65952;51.440;-2.054;2024-01-11T09:33:58;102420.44;;;6.52;57.17
77023;BME280;65952;51.440;-2.054;2024-01-11T09:36:23;102422.06;;;6.55;57.02
77023;BME280;65952;51.440;-2.054;2024-01-11T09:38:49;102427.59;;;6.52;57.05
77023;BME280;65952;51.440;-2.054;2024-01-11T09:41:15;102439.63;;;5.95;58.92
77023;BME280;65952;51.440;-2.054;2024-01-11T09:43:41;102441.19;;;5.83;58.86
77023;BME280;65952;51.440;-2.054;2024-01-11T09:46:09;102441.06;;;5.68;59.76
77023;BME280;65952;51.440;-2.054;2024-01-11T09:48:38;102445.47;;;5.69;60.06
77023;BME280;65952;51.440;-2.054;2024-01-11T09:51:09;102443.47;;;6.07;58.90
77023;BME280;65952;51.440;-2.054;2024-01-11T09:53:37;102449.75;;;6.06;59.48
77023;BME280;65952;51.440;-2.054;2024-01-11T09:56:08;102441.16;;;5.67;59.57
77023;BME280;65952;51.440;-2.054;2024-01-11T09:58:34;102446.69;;;6.60;58.50
77023;BME280;65952;51.440;-2.054;2024-01-11T10:01:07;102448.19;;;7.25;55.94
77023;BME280;65952;51.440;-2.054;2024-01-11T10:03:34;102442.75;;;7.55;55.03
77023;BME280;65952;51.440;-2.054;2024-01-11T10:06:00;102444.03;;;8.06;54.23
77023;BME280;65952;51.440;-2.054;2024-01-11T10:08:27;102443.88;;;8.64;51.19
77023;BME280;65952;51.440;-2.054;2024-01-11T10:10:54;102439.97;;;8.82;50.99
77023;BME280;65952;51.440;-2.054;2024-01-11T10:13:26;102442.53;;;8.84;50.66
77023;BME280;65952;51.440;-2.054;2024-01-11T10:15:52;102445.16;;;8.16;51.92
77023;BME280;65952;51.440;-2.054;2024-01-11T10:18:18;102451.50;;;8.01;52.54
77023;BME280;65952;51.440;-2.054;2024-01-11T10:20:48;102448.84;;;8.28;52.19
77023;BME280;65952;51.440;-2.054;2024-01-11T10:23:14;102456.50;;;8.34;51.13
77023;BME280;65952;51.440;-2.054;2024-01-11T10:25:42;102449.19;;;8.36;51.08
77023;BME280;65952;51.440;-2.054;2024-01-11T10:28:08;102441.28;;;8.49;50.80
77023;BME280;65952;51.440;-2.054;2024-01-11T10:30:33;102440.69;;;8.44;50.30
77023;BME280;65952;51.440;-2.054;2024-01-11T10:33:01;102447.06;;;7.58;51.85
77023;BME280;65952;51.440;-2.054;2024-01-11T10:35:26;102447.97;;;8.27;49.97
77023;BME280;65952;51.440;-2.054;2024-01-11T10:37:52;102451.97;;;8.35;50.33
77023;BME280;65952;51.440;-2.054;2024-01-11T10:40:19;102462.06;;;8.58;50.02
77023;BME280;65952;51.440;-2.054;2024-01-11T10:42:59;102461.47;;;8.26;50.38
77023;BME280;65952;51.440;-2.054;2024-01-11T10:45:30;102457.13;;;8.52;50.10
77023;BME280;65952;51.440;-2.054;2024-01-11T10:48:06;102457.03;;;8.39;50.85
77023;BME280;65952;51.440;-2.054;2024-01-11T10:50:36;102463.41;;;8.24;51.45
77023;BME280;65952;51.440;-2.054;2024-01-11T10:55:50;102462.31;;;6.82;54.83
77023;BME280;65952;51.440;-2.054;2024-01-11T10:58:15;102452.94;;;7.92;52.32
77023;BME280;65952;51.440;-2.054;2024-01-11T11:00:41;102460.91;;;8.21;51.66
77023;BME280;65952;51.440;-2.054;2024-01-11T11:03:09;102467.75;;;8.39;50.77
77023;BME280;65952;51.440;-2.054;2024-01-11T11:05:37;102470.16;;;7.73;51.76
77023;BME280;65952;51.440;-2.054;2024-01-11T11:08:03;102467.75;;;8.39;51.02
77023;BME280;65952;51.440;-2.054;2024-01-11T11:10:32;102471.78;;;8.32;50.90
77023;BME280;65952;51.440;-2.054;2024-01-11T11:13:05;102474.75;;;8.27;50.81
77023;BME280;65952;51.440;-2.054;2024-01-11T11:15:32;102474.81;;;7.98;51.76
77023;BME280;65952;51.440;-2.054;2024-01-11T11:17:58;102467.47;;;7.44;54.04
77023;BME280;65952;51.440;-2.054;2024-01-11T11:20:24;102477.72;;;6.30;56.79
77023;BME280;65952;51.440;-2.054;2024-01-11T11:23:09;102477.53;;;6.17;57.67
77023;BME280;65952;51.440;-2.054;2024-01-11T11:25:36;102471.47;;;5.98;58.85
77023;BME280;65952;51.440;-2.054;2024-01-11T11:28:02;102476.91;;;5.63;58.88
77023;BME280;65952;51.440;-2.054;2024-01-11T11:30:30;102469.66;;;5.82;58.58
77023;BME280;65952;51.440;-2.054;2024-01-11T11:32:55;102483.50;;;5.56;59.82
77023;BME280;65952;51.440;-2.054;2024-01-11T11:35:25;102480.06;;;5.87;59.21
77023;BME280;65952;51.440;-2.054;2024-01-11T11:37:55;102490.47;;;5.92;58.77
77023;BME280;65952;51.440;-2.054;2024-01-11T11:40:21;102497.69;;;5.74;58.95
77023;BME280;65952;51.440;-2.054;2024-01-11T11:42:47;102493.00;;;6.11;57.95
77023;BME280;65952;51.440;-2.054;2024-01-11T11:45:24;102505.16;;;5.83;59.04
77023;BME280;65952;51.440;-2.054;2024-01-11T11:47:51;102514.22;;;5.63;59.40
77023;BME280;65952;51.440;-2.054;2024-01-11T11:50:16;102508.59;;;5.51;59.36
77023;BME280;65952;51.440;-2.054;2024-01-11T11:52:44;102514.28;;;5.79;58.46
77023;BME280;65952;51.440;-2.054;2024-01-11T11:55:11;102496.91;;;5.54;59.51
77023;BME280;65952;51.440;-2.054;2024-01-11T11:57:37;102509.75;;;5.63;58.98
77023;BME280;65952;51.440;-2.054;2024-01-11T12:00:03;102508.06;;;5.78;58.90
77023;BME280;65952;51.440;-2.054;2024-01-11T12:02:32;102508.72;;;4.97;60.33
77023;BME280;65952;51.440;-2.054;2024-01-11T12:04:58;102512.53;;;4.92;60.92
77023;BME280;65952;51.440;-2.054;2024-01-11T12:07:24;102512.66;;;4.71;61.13
77023;BME280;65952;51.440;-2.054;2024-01-11T12:09:50;102516.94;;;5.79;59.05
77023;BME280;65952;51.440;-2.054;2024-01-11T12:12:16;102519.00;;;5.74;59.28
77023;BME280;65952;51.440;-2.054;2024-01-11T12:14:47;102519.06;;;5.72;59.14
77023;BME280;65952;51.440;-2.054;2024-01-11T12:17:12;102513.94;;;5.85;58.73
77023;BME280;65952;51.440;-2.054;2024-01-11T12:19:38;102510.88;;;5.93;58.17
77023;BME280;65952;51.440;-2.054;2024-01-11T12:22:04;102506.34;;;6.11;58.55
77023;BME280;65952;51.440;-2.054;2024-01-11T12:24:29;102506.00;;;6.01;58.65
77023;BME280;65952;51.440;-2.054;2024-01-11T12:26:56;102509.19;;;6.08;57.75
77023;BME280;65952;51.440;-2.054;2024-01-11T12:29:23;102521.34;;;5.80;58.62
77023;BME280;65952;51.440;-2.054;2024-01-11T12:31:50;102511.63;;;6.60;56.68
77023;BME280;65952;51.440;-2.054;2024-01-11T12:34:15;102508.22;;;6.09;57.63
77023;BME280;65952;51.440;-2.054;2024-01-11T12:36:41;102509.38;;;6.21;57.65
77023;BME280;65952;51.440;-2.054;2024-01-11T12:39:08;102505.25;;;6.31;56.94
77023;BME280;65952;51.440;-2.054;2024-01-11T12:41:35;102506.72;;;6.37;56.83
77023;BME280;65952;51.440;-2.054;2024-01-11T12:44:01;102500.00;;;5.96;57.40
77023;BME280;65952;51.440;-2.054;2024-01-11T12:46:27;102499.13;;;5.79;57.81
77023;BME280;65952;51.440;-2.054;2024-01-11T12:48:52;102498.25;;;5.63;57.71